Latest Weather Observations for Fort Denison

IDN60801

Issued at 4:33 pm EST Thursday 29 September 2016 (issued every 30 minutes, with the page automatically refreshed every 10 minutes)

About weather observations | Map of weather stations | Latest weather observations for NSW | Other Formats
Station Details ID: 066022 Name: FORT DENISON Lat: -33.86 Lon: 151.23 Height: 5.0 m
Data from the previous 72 hours. | See also: Recent months for locations in New South Wales
Date/Time
EST
Temp
°C
App
Temp
°C
Dew
Point
°C
Rel
Hum
%
Delta-T
°C
Wind Press
QNH
hPa
Press
MSL
hPa
Rain since
9am
mm
Dir  Spd
km/h
Gust
km/h
Spd
kts
Gust
kts
29/04:30pm - - - - - NNW 22 33 12 18 - - -
29/04:00pm - - - - - N 30 39 16 21 - - -
29/03:30pm - - - - - N 24 35 13 19 - - -
29/03:00pm - - - - - N 22 33 12 18 - - -
29/02:30pm - - - - - NNW 30 43 16 23 - - -
29/02:00pm - - - - - N 28 44 15 24 - - -
29/01:30pm - - - - - NNE 20 28 11 15 - - -
29/01:00pm - - - - - NNE 17 26 9 14 - - -
29/12:30pm - - - - - NNE 19 26 10 14 - - -
29/12:00pm - - - - - NNE 17 24 9 13 - - -
29/11:30am - - - - - NNE 17 22 9 12 - - -
29/11:00am - - - - - NNE 15 20 8 11 - - -
29/10:30am - - - - - NNE 17 24 9 13 - - -
29/10:00am - - - - - N 17 22 9 12 - - -
29/09:30am - - - - - NNE 15 22 8 12 - - -
29/09:00am - - - - - NNE 11 17 6 9 - - -
29/08:30am - - - - - NNE 17 22 9 12 - - -
29/08:00am - - - - - NE 15 28 8 15 - - -
29/07:30am - - - - - NE 13 20 7 11 - - -
29/07:00am - - - - - N 17 24 9 13 - - -
29/06:30am - - - - - N 20 28 11 15 - - -
29/06:00am - - - - - NNW 17 30 9 16 - - -
29/05:30am - - - - - N 22 30 12 16 - - -
29/05:00am - - - - - NNE 22 33 12 18 - - -
29/04:30am - - - - - NNE 22 32 12 17 - - -
29/04:00am - - - - - NNE 19 28 10 15 - - -
29/03:30am - - - - - NNE 19 26 10 14 - - -
29/03:00am - - - - - NNE 17 24 9 13 - - -
29/02:30am - - - - - NNE 13 20 7 11 - - -
29/02:00am - - - - - WNW 13 19 7 10 - - -
29/01:30am - - - - - N 13 20 7 11 - - -
29/01:00am - - - - - N 17 22 9 12 - - -
29/12:30am - - - - - NNE 15 22 8 12 - - -
29/12:00am - - - - - NNE 15 22 8 12 - - -
 
Date/Time
EST
Temp
°C
App
Temp
°C
Dew
Point
°C
Rel
Hum
%
Delta-T
°C
Wind Press
QNH
hPa
Press
MSL
hPa
Rain since
9am
mm
Dir  Spd
km/h
Gust
km/h
Spd
kts
Gust
kts
28/11:30pm - - - - - NNE 13 20 7 11 - - -
28/11:00pm - - - - - N 13 17 7 9 - - -
28/10:30pm - - - - - N 13 19 7 10 - - -
28/10:00pm - - - - - NNE 13 17 7 9 - - -
28/09:30pm - - - - - NNE 15 22 8 12 - - -
28/09:00pm - - - - - NE 15 24 8 13 - - -
28/08:30pm - - - - - NE 15 28 8 15 - - -
28/08:00pm - - - - - ENE 19 24 10 13 - - -
28/07:30pm - - - - - ENE 17 24 9 13 - - -
28/07:00pm - - - - - NE 15 24 8 13 - - -
28/06:30pm - - - - - NE 15 20 8 11 - - -
28/06:00pm - - - - - ENE 19 24 10 13 - - -
28/05:30pm - - - - - E 17 24 9 13 - - -
28/05:00pm - - - - - ENE 19 24 10 13 - - -
28/04:30pm - - - - - E 19 22 10 12 - - -
28/04:00pm - - - - - E 15 20 8 11 - - -
28/03:30pm - - - - - E 19 22 10 12 - - -
28/03:00pm - - - - - E 17 22 9 12 - - -
28/02:30pm - - - - - ESE 17 22 9 12 - - -
28/02:00pm - - - - - E 17 20 9 11 - - -
28/01:30pm - - - - - E 17 20 9 11 - - -
28/01:00pm - - - - - E 13 20 7 11 - - -
28/12:30pm - - - - - ESE 15 19 8 10 - - -
28/12:00pm - - - - - ESE 15 20 8 11 - - -
28/11:30am - - - - - S 6 11 3 6 - - -
28/11:00am - - - - - SSE 7 15 4 8 - - -
28/10:30am - - - - - S 9 24 5 13 - - -
28/10:00am - - - - - SW 7 15 4 8 - - -
28/09:30am - - - - - WNW 11 15 6 8 - - -
28/09:00am - - - - - WNW 17 20 9 11 - - -
28/08:30am - - - - - W 17 22 9 12 - - -
28/08:00am - - - - - W 20 26 11 14 - - -
28/07:30am - - - - - W 20 26 11 14 - - -
28/07:00am - - - - - W 19 26 10 14 - - -
28/06:30am - - - - - W 17 22 9 12 - - -
28/06:00am - - - - - W 19 26 10 14 - - -
28/05:30am - - - - - W 20 24 11 13 - - -
28/05:00am - - - - - W 22 26 12 14 - - -
28/04:30am - - - - - W 20 26 11 14 - - -
28/04:00am - - - - - W 22 28 12 15 - - -
28/03:30am - - - - - W 24 32 13 17 - - -
28/03:00am - - - - - W 22 28 12 15 - - -
28/02:30am - - - - - W 22 30 12 16 - - -
28/02:00am - - - - - WSW 20 26 11 14 - - -
28/01:30am - - - - - W 19 24 10 13 - - -
28/01:00am - - - - - W 19 24 10 13 - - -
28/12:30am - - - - - WSW 15 24 8 13 - - -
28/12:00am - - - - - WSW 17 24 9 13 - - -
 
Date/Time
EST
Temp
°C
App
Temp
°C
Dew
Point
°C
Rel
Hum
%
Delta-T
°C
Wind Press
QNH
hPa
Press
MSL
hPa
Rain since
9am
mm
Dir  Spd
km/h
Gust
km/h
Spd
kts
Gust
kts
27/11:30pm - - - - - WSW 17 26 9 14 - - -
27/11:00pm - - - - - W 17 24 9 13 - - -
27/10:30pm - - - - - WSW 17 22 9 12 - - -
27/10:00pm - - - - - W 19 24 10 13 - - -
27/09:30pm - - - - - W 19 24 10 13 - - -
27/09:00pm - - - - - WSW 19 28 10 15 - - -
27/08:30pm - - - - - WSW 17 24 9 13 - - -
27/08:00pm - - - - - W 20 30 11 16 - - -
27/07:30pm - - - - - WSW 20 33 11 18 - - -
27/07:00pm - - - - - WSW 19 30 10 16 - - -
27/06:30pm - - - - - WSW 24 39 13 21 - - -
27/06:00pm - - - - - WSW 30 48 16 26 - - -
27/05:34pm - - - - - WSW 33 52 18 28 - - -
27/05:30pm - - - - - WSW 35 52 19 28 - - -
27/05:00pm - - - - - WSW 37 57 20 31 - - -
27/04:30pm - - - - - WSW 32 54 17 29 - - -
27/04:00pm - - - - - SW 30 57 16 31 - - -
27/03:43pm - - - - - SW 28 46 15 25 - - -
27/03:30pm - - - - - SW 30 56 16 30 - - -
27/03:10pm - - - - - SW 28 48 15 26 - - -
27/03:00pm - - - - - WSW 26 48 14 26 - - -
27/02:30pm - - - - - WSW 32 56 17 30 - - -
27/02:00pm - - - - - WSW 30 56 16 30 - - -
27/01:30pm - - - - - WSW 33 54 18 29 - - -
27/01:07pm - - - - - W 33 54 18 29 - - -
27/01:00pm - - - - - W 32 48 17 26 - - -
27/12:31pm - - - - - W 39 57 21 31 - - -
27/12:30pm - - - - - W 41 57 22 31 - - -
27/12:17pm - - - - - W 33 56 18 30 - - -
27/12:00pm - - - - - W 32 44 17 24 - - -
27/11:55am - - - - - W 28 46 15 25 - - -
27/11:30am - - - - - WNW 15 30 8 16 - - -
27/11:00am - - - - - NW 13 22 7 12 - - -
27/10:30am - - - - - N 17 26 9 14 - - -
27/10:00am - - - - - N 20 30 11 16 - - -
27/09:30am - - - - - N 22 30 12 16 - - -
27/09:00am - - - - - N 20 28 11 15 - - -
27/08:30am - - - - - NNW 22 32 12 17 - - -
27/08:00am - - - - - NNW 28 35 15 19 - - -
27/07:30am - - - - - NNW 20 28 11 15 - - -
27/07:00am - - - - - NNW 20 24 11 13 - - -
27/06:30am - - - - - NW 13 22 7 12 - - -
27/06:00am - - - - - WNW 7 13 4 7 - - -
27/05:30am - - - - - W 9 13 5 7 - - -
27/05:00am - - - - - W 11 17 6 9 - - -
27/04:30am - - - - - W 15 19 8 10 - - -
27/04:00am - - - - - W 11 17 6 9 - - -
27/03:30am - - - - - WNW 13 17 7 9 - - -
27/03:00am - - - - - WNW 9 15 5 8 - - -
27/02:30am - - - - - WNW 13 17 7 9 - - -
27/02:00am - - - - - WNW 11 15 6 8 - - -
27/01:30am - - - - - WNW 13 17 7 9 - - -
27/01:00am - - - - - W 22 30 12 16 - - -
27/12:30am - - - - - W 17 24 9 13 - - -
27/12:00am - - - - - WNW 11 15 6 8 - - -
 
Date/Time
EST
Temp
°C
App
Temp
°C
Dew
Point
°C
Rel
Hum
%
Delta-T
°C
Wind Press
QNH
hPa
Press
MSL
hPa
Rain since
9am
mm
Dir  Spd
km/h
Gust
km/h
Spd
kts
Gust
kts
26/11:30pm - - - - - WNW 11 15 6 8 - - -
26/11:00pm - - - - - WNW 11 15 6 8 - - -
26/10:30pm - - - - - WNW 11 17 6 9 - - -
26/10:00pm - - - - - W 15 20 8 11 - - -
26/09:30pm - - - - - W 13 20 7 11 - - -
26/09:00pm - - - - - W 15 19 8 10 - - -
26/08:30pm - - - - - W 17 26 9 14 - - -
26/08:00pm - - - - - W 13 20 7 11 - - -
26/07:30pm - - - - - W 9 15 5 8 - - -
26/07:00pm - - - - - SSW 6 7 3 4 - - -
26/06:30pm - - - - - SSW 9 13 5 7 - - -
26/06:00pm - - - - - SSW 11 17 6 9 - - -
26/05:30pm - - - - - S 11 19 6 10 - - -
26/05:00pm - - - - - SSE 15 20 8 11 - - -

Other Formats:

Comma delimited format used in spreadsheet applications
http://www.bom.gov.au/fwo/IDN60801/IDN60801.94769.axf

JavaScript Object Notation format (JSON) in row-major order
http://www.bom.gov.au/fwo/IDN60801/IDN60801.94769.json